Hardin, Montana
Current Conditions -  °F | °C
As of 11:53 AM on Thursday 18 Dec 2014 (Local Time) from KBIL Reporting Station
Few Clouds Few Clouds  
Wind Chill: 22°   Ceiling: Unl
Heat Index: 34°   Visibility: 10mi
Dew Point: 21°   Wind: 22mph
Humidity: 59%   Direction: 230°SW
Pressure: 29.96"   Gusts: 31mph
Location:  45.73°N, 107.61°W
Report Text: KBIL 181853Z 23019G27KT 10SM FEW100 01/M06 A2996 RMK AO2 PK WND 24027/1844 SLP176 ACSL DSNT SE-S T00111061
Loading
Personal Weather Stations






























Interactive Weather Map New forecast layout! Learn more

10-Day Weather Forecast

Advertisements
Track Severe Weather on mobile